Terminal Aerodrome Forecast
Issued by NWS

Current Version | Previous Version | Text Only | Print | Product List | Glossary Off
Versions: 1 2 3 4 5 6 7 8 9 10 11 12 13 14 15 16 17 18 19 20 21 22 23 24

000
FTUS41 KILN 302200 AAA
TAFLCK
TAF AMD
KLCK 302211Z 3022/3118 22010KT P6SM SCT060 BKN200
     FM310100 21007KT P6SM -SHRA SCT050 OVC120
     FM310300 20007KT 3SM -SHRA BR SCT012 BKN050
     FM310900 19005KT 3SM -SHRA BR OVC012
     FM311400 20008KT P6SM VCSH OVC018
     FM311600 21010KT P6SM -SHRA VCTS BKN025CB=

USA.gov is the U.S. government's official web portal to all federal, state and local government web resources and services.